sensor_id;sensor_type;location;lat;lon;timestamp;temperature;humidity
17284;DHT22;8760;52.248;20.952;2023-04-24T00:00:21;13.70;99.90
17284;DHT22;8760;52.248;20.952;2023-04-24T00:02:48;13.60;99.90
17284;DHT22;8760;52.248;20.952;2023-04-24T00:05:16;13.60;99.90
17284;DHT22;8760;52.248;20.952;2023-04-24T00:07:44;13.50;99.90
17284;DHT22;8760;52.248;20.952;2023-04-24T00:10:12;13.40;99.90
17284;DHT22;8760;52.248;20.952;2023-04-24T00:12:38;13.30;1.00
17284;DHT22;8760;52.248;20.952;2023-04-24T00:15:08;13.20;1.00
17284;DHT22;8760;52.248;20.952;2023-04-24T00:17:35;13.20;1.00
17284;DHT22;8760;52.248;20.952;2023-04-24T00:20:03;13.10;1.00
17284;DHT22;8760;52.248;20.952;2023-04-24T00:22:32;13.10;1.00
17284;DHT22;8760;52.248;20.952;2023-04-24T00:24:59;13.00;1.00
17284;DHT22;8760;52.248;20.952;2023-04-24T00:27:26;12.90;99.90
17284;DHT22;8760;52.248;20.952;2023-04-24T00:29:53;12.80;99.90
17284;DHT22;8760;52.248;20.952;2023-04-24T00:32:21;12.70;1.00
17284;DHT22;8760;52.248;20.952;2023-04-24T00:34:48;12.60;99.90
17284;DHT22;8760;52.248;20.952;2023-04-24T00:37:15;12.50;11.60
17284;DHT22;8760;52.248;20.952;2023-04-24T00:39:42;12.40;99.90
17284;DHT22;8760;52.248;20.952;2023-04-24T00:42:09;12.30;1.00
17284;DHT22;8760;52.248;20.952;2023-04-24T00:44:36;12.30;1.00
17284;DHT22;8760;52.248;20.952;2023-04-24T00:47:04;12.20;1.00
17284;DHT22;8760;52.248;20.952;2023-04-24T00:49:32;12.20;99.90
17284;DHT22;8760;52.248;20.952;2023-04-24T00:51:59;12.20;99.90
17284;DHT22;8760;52.248;20.952;2023-04-24T00:54:26;12.30;99.90
17284;DHT22;8760;52.248;20.952;2023-04-24T00:56:53;12.30;99.90
17284;DHT22;8760;52.248;20.952;2023-04-24T00:59:20;12.30;1.00
17284;DHT22;8760;52.248;20.952;2023-04-24T01:01:47;12.20;99.90
17284;DHT22;8760;52.248;20.952;2023-04-24T01:04:14;12.30;99.90
17284;DHT22;8760;52.248;20.952;2023-04-24T01:06:45;12.30;99.90
17284;DHT22;8760;52.248;20.952;2023-04-24T01:09:12;12.30;1.00
17284;DHT22;8760;52.248;20.952;2023-04-24T01:11:41;12.20;1.00
17284;DHT22;8760;52.248;20.952;2023-04-24T01:14:08;12.20;1.00
17284;DHT22;8760;52.248;20.952;2023-04-24T01:16:35;12.10;99.90
17284;DHT22;8760;52.248;20.952;2023-04-24T01:19:04;12.10;1.00
17284;DHT22;8760;52.248;20.952;2023-04-24T01:21:32;12.00;1.00
17284;DHT22;8760;52.248;20.952;2023-04-24T01:24:03;12.00;1.00
17284;DHT22;8760;52.248;20.952;2023-04-24T01:26:30;11.90;1.00
17284;DHT22;8760;52.248;20.952;2023-04-24T01:28:57;11.90;1.00
17284;DHT22;8760;52.248;20.952;2023-04-24T01:31:24;11.80;1.00
17284;DHT22;8760;52.248;20.952;2023-04-24T01:33:51;11.90;99.90
17284;DHT22;8760;52.248;20.952;2023-04-24T01:36:19;12.00;1.00
17284;DHT22;8760;52.248;20.952;2023-04-24T01:38:46;12.10;99.90
17284;DHT22;8760;52.248;20.952;2023-04-24T01:41:14;12.20;99.90
17284;DHT22;8760;52.248;20.952;2023-04-24T01:43:42;12.40;1.00
17284;DHT22;8760;52.248;20.952;2023-04-24T01:46:09;12.40;1.00
17284;DHT22;8760;52.248;20.952;2023-04-24T01:48:36;12.50;1.00
17284;DHT22;8760;52.248;20.952;2023-04-24T01:51:03;12.60;1.00
17284;DHT22;8760;52.248;20.952;2023-04-24T01:53:30;12.70;1.00
17284;DHT22;8760;52.248;20.952;2023-04-24T01:55:57;12.80;1.00
17284;DHT22;8760;52.248;20.952;2023-04-24T01:58:25;12.90;1.00
17284;DHT22;8760;52.248;20.952;2023-04-24T02:00:53;12.90;1.00
17284;DHT22;8760;52.248;20.952;2023-04-24T02:03:22;13.00;1.00
17284;DHT22;8760;52.248;20.952;2023-04-24T02:05:49;13.00;1.00
17284;DHT22;8760;52.248;20.952;2023-04-24T02:08:16;13.00;1.00
17284;DHT22;8760;52.248;20.952;2023-04-24T02:10:42;13.00;1.00
17284;DHT22;8760;52.248;20.952;2023-04-24T02:13:09;13.00;1.00
17284;DHT22;8760;52.248;20.952;2023-04-24T02:15:38;13.00;1.00
17284;DHT22;8760;52.248;20.952;2023-04-24T02:18:05;12.90;1.00
17284;DHT22;8760;52.248;20.952;2023-04-24T02:20:32;12.80;1.00
17284;DHT22;8760;52.248;20.952;2023-04-24T02:23:01;12.70;1.00
17284;DHT22;8760;52.248;20.952;2023-04-24T02:25:28;12.60;1.00
17284;DHT22;8760;52.248;20.952;2023-04-24T02:27:55;12.40;64.60
17284;DHT22;8760;52.248;20.952;2023-04-24T02:30:22;12.30;99.90
17284;DHT22;8760;52.248;20.952;2023-04-24T02:32:50;12.20;99.90
17284;DHT22;8760;52.248;20.952;2023-04-24T02:35:17;12.10;99.90
17284;DHT22;8760;52.248;20.952;2023-04-24T02:37:44;12.00;19.40
17284;DHT22;8760;52.248;20.952;2023-04-24T02:40:11;11.90;99.90
17284;DHT22;8760;52.248;20.952;2023-04-24T02:42:38;11.70;1.00
17284;DHT22;8760;52.248;20.952;2023-04-24T02:45:06;11.60;99.90
17284;DHT22;8760;52.248;20.952;2023-04-24T02:47:33;11.50;1.00
17284;DHT22;8760;52.248;20.952;2023-04-24T02:50:01;11.40;99.90
17284;DHT22;8760;52.248;20.952;2023-04-24T02:52:28;11.30;99.90
17284;DHT22;8760;52.248;20.952;2023-04-24T02:54:55;11.20;99.90
17284;DHT22;8760;52.248;20.952;2023-04-24T02:57:22;11.20;99.90
17284;DHT22;8760;52.248;20.952;2023-04-24T02:59:49;11.10;1.00
17284;DHT22;8760;52.248;20.952;2023-04-24T03:02:16;11.00;7.70
17284;DHT22;8760;52.248;20.952;2023-04-24T03:04:43;11.00;1.00
17284;DHT22;8760;52.248;20.952;2023-04-24T03:07:11;11.00;96.20
17284;DHT22;8760;52.248;20.952;2023-04-24T03:09:38;10.90;31.50
17284;DHT22;8760;52.248;20.952;2023-04-24T03:12:05;10.90;1.00
17284;DHT22;8760;52.248;20.952;2023-04-24T03:14:32;10.80;1.00
17284;DHT22;8760;52.248;20.952;2023-04-24T03:16:59;10.70;1.00
17284;DHT22;8760;52.248;20.952;2023-04-24T03:19:26;10.70;99.90
17284;DHT22;8760;52.248;20.952;2023-04-24T03:21:53;10.70;99.90
17284;DHT22;8760;52.248;20.952;2023-04-24T03:24:22;10.60;99.90
17284;DHT22;8760;52.248;20.952;2023-04-24T03:26:49;10.60;88.90
17284;DHT22;8760;52.248;20.952;2023-04-24T03:29:16;10.60;99.90
17284;DHT22;8760;52.248;20.952;2023-04-24T03:31:42;10.60;1.00
17284;DHT22;8760;52.248;20.952;2023-04-24T03:34:09;10.70;99.90
17284;DHT22;8760;52.248;20.952;2023-04-24T03:36:36;10.70;99.90
17284;DHT22;8760;52.248;20.952;2023-04-24T03:39:03;10.80;1.00
17284;DHT22;8760;52.248;20.952;2023-04-24T03:41:32;11.00;99.90
17284;DHT22;8760;52.248;20.952;2023-04-24T03:43:59;11.30;99.90
17284;DHT22;8760;52.248;20.952;2023-04-24T03:46:26;11.50;1.00
17284;DHT22;8760;52.248;20.952;2023-04-24T03:48:53;11.80;99.90
17284;DHT22;8760;52.248;20.952;2023-04-24T03:51:19;11.90;99.90
17284;DHT22;8760;52.248;20.952;2023-04-24T03:53:47;12.00;99.90
17284;DHT22;8760;52.248;20.952;2023-04-24T03:56:14;12.10;1.00
17284;DHT22;8760;52.248;20.952;2023-04-24T03:58:42;12.20;1.00
17284;DHT22;8760;52.248;20.952;2023-04-24T04:01:09;12.30;1.00
17284;DHT22;8760;52.248;20.952;2023-04-24T04:03:37;12.40;1.00
17284;DHT22;8760;52.248;20.952;2023-04-24T04:06:04;12.50;1.00
17284;DHT22;8760;52.248;20.952;2023-04-24T04:08:31;12.60;1.00
17284;DHT22;8760;52.248;20.952;2023-04-24T04:10:58;12.50;1.00
17284;DHT22;8760;52.248;20.952;2023-04-24T04:13:24;12.50;1.00
17284;DHT22;8760;52.248;20.952;2023-04-24T04:15:53;12.60;1.00
17284;DHT22;8760;52.248;20.952;2023-04-24T04:18:20;12.70;1.00
17284;DHT22;8760;52.248;20.952;2023-04-24T04:20:48;12.70;1.00
17284;DHT22;8760;52.248;20.952;2023-04-24T04:23:15;12.70;1.00
17284;DHT22;8760;52.248;20.952;2023-04-24T04:25:41;12.70;1.00
17284;DHT22;8760;52.248;20.952;2023-04-24T04:28:08;12.70;1.00
17284;DHT22;8760;52.248;20.952;2023-04-24T04:30:35;12.70;1.00
17284;DHT22;8760;52.248;20.952;2023-04-24T04:33:05;12.70;1.00
17284;DHT22;8760;52.248;20.952;2023-04-24T04:35:32;12.70;1.00
17284;DHT22;8760;52.248;20.952;2023-04-24T04:37:58;12.70;1.00
17284;DHT22;8760;52.248;20.952;2023-04-24T04:40:26;12.60;1.00
17284;DHT22;8760;52.248;20.952;2023-04-24T04:42:53;12.60;1.00
17284;DHT22;8760;52.248;20.952;2023-04-24T04:45:21;12.70;1.00
17284;DHT22;8760;52.248;20.952;2023-04-24T04:47:49;12.70;1.00
17284;DHT22;8760;52.248;20.952;2023-04-24T04:50:18;12.70;1.00
17284;DHT22;8760;52.248;20.952;2023-04-24T04:52:45;12.80;1.00
17284;DHT22;8760;52.248;20.952;2023-04-24T04:55:12;12.90;1.00
17284;DHT22;8760;52.248;20.952;2023-04-24T04:57:40;13.00;1.00
17284;DHT22;8760;52.248;20.952;2023-04-24T05:00:08;13.00;1.00
17284;DHT22;8760;52.248;20.952;2023-04-24T05:02:37;13.20;1.00
17284;DHT22;8760;52.248;20.952;2023-04-24T05:05:05;13.30;1.00
17284;DHT22;8760;52.248;20.952;2023-04-24T05:07:33;13.40;1.00
17284;DHT22;8760;52.248;20.952;2023-04-24T05:10:00;13.50;1.00
17284;DHT22;8760;52.248;20.952;2023-04-24T05:12:27;13.60;1.00
17284;DHT22;8760;52.248;20.952;2023-04-24T05:14:54;13.70;1.00
17284;DHT22;8760;52.248;20.952;2023-04-24T05:17:21;13.90;99.90
17284;DHT22;8760;52.248;20.952;2023-04-24T05:19:48;14.00;99.90
17284;DHT22;8760;52.248;20.952;2023-04-24T05:22:15;14.20;99.90
17284;DHT22;8760;52.248;20.952;2023-04-24T05:24:44;14.40;99.90
17284;DHT22;8760;52.248;20.952;2023-04-24T05:27:11;14.50;99.90
17284;DHT22;8760;52.248;20.952;2023-04-24T05:29:38;14.60;99.90
17284;DHT22;8760;52.248;20.952;2023-04-24T05:32:05;14.70;99.90
17284;DHT22;8760;52.248;20.952;2023-04-24T05:34:32;14.80;99.90
17284;DHT22;8760;52.248;20.952;2023-04-24T05:36:59;15.10;99.90
17284;DHT22;8760;52.248;20.952;2023-04-24T05:39:26;15.00;99.90
17284;DHT22;8760;52.248;20.952;2023-04-24T05:41:54;15.20;99.90
17284;DHT22;8760;52.248;20.952;2023-04-24T05:44:23;15.40;99.90
17284;DHT22;8760;52.248;20.952;2023-04-24T05:46:52;15.60;99.90
17284;DHT22;8760;52.248;20.952;2023-04-24T05:49:20;15.80;99.90
17284;DHT22;8760;52.248;20.952;2023-04-24T05:51:47;15.90;99.90
17284;DHT22;8760;52.248;20.952;2023-04-24T05:54:14;15.90;99.90
17284;DHT22;8760;52.248;20.952;2023-04-24T05:56:41;15.90;99.90
17284;DHT22;8760;52.248;20.952;2023-04-24T05:59:10;16.00;99.90
17284;DHT22;8760;52.248;20.952;2023-04-24T06:01:37;16.10;99.90
17284;DHT22;8760;52.248;20.952;2023-04-24T06:04:04;16.20;99.90
17284;DHT22;8760;52.248;20.952;2023-04-24T06:06:31;16.30;99.90
17284;DHT22;8760;52.248;20.952;2023-04-24T06:08:58;16.40;99.90
17284;DHT22;8760;52.248;20.952;2023-04-24T06:11:25;16.70;99.90
17284;DHT22;8760;52.248;20.952;2023-04-24T06:13:52;16.90;99.90
17284;DHT22;8760;52.248;20.952;2023-04-24T06:16:22;17.10;99.90
17284;DHT22;8760;52.248;20.952;2023-04-24T06:18:49;17.10;99.90
17284;DHT22;8760;52.248;20.952;2023-04-24T06:21:17;17.30;99.90
17284;DHT22;8760;52.248;20.952;2023-04-24T06:23:43;17.60;99.90
17284;DHT22;8760;52.248;20.952;2023-04-24T06:26:11;17.90;99.90
17284;DHT22;8760;52.248;20.952;2023-04-24T06:28:39;18.20;99.90
17284;DHT22;8760;52.248;20.952;2023-04-24T06:31:05;18.40;99.90
17284;DHT22;8760;52.248;20.952;2023-04-24T06:33:34;18.70;99.90
17284;DHT22;8760;52.248;20.952;2023-04-24T06:36:01;19.00;99.90
17284;DHT22;8760;52.248;20.952;2023-04-24T06:38:29;19.20;99.90
17284;DHT22;8760;52.248;20.952;2023-04-24T06:40:56;19.50;99.90
17284;DHT22;8760;52.248;20.952;2023-04-24T06:43:23;19.70;99.90
17284;DHT22;8760;52.248;20.952;2023-04-24T06:45:50;20.00;99.90
17284;DHT22;8760;52.248;20.952;2023-04-24T06:48:17;20.20;98.70
17284;DHT22;8760;52.248;20.952;2023-04-24T06:50:48;20.40;96.00
17284;DHT22;8760;52.248;20.952;2023-04-24T06:53:15;20.60;89.80
17284;DHT22;8760;52.248;20.952;2023-04-24T06:55:42;20.90;82.60
17284;DHT22;8760;52.248;20.952;2023-04-24T06:58:11;21.00;75.80
17284;DHT22;8760;52.248;20.952;2023-04-24T07:00:38;21.20;71.90
17284;DHT22;8760;52.248;20.952;2023-04-24T07:03:05;21.50;72.70
17284;DHT22;8760;52.248;20.952;2023-04-24T07:05:32;21.60;57.00
17284;DHT22;8760;52.248;20.952;2023-04-24T07:08:02;22.20;45.90
17284;DHT22;8760;52.248;20.952;2023-04-24T07:10:29;22.30;38.20
17284;DHT22;8760;52.248;20.952;2023-04-24T07:12:56;22.70;29.80
17284;DHT22;8760;52.248;20.952;2023-04-24T07:15:23;23.00;25.10
17284;DHT22;8760;52.248;20.952;2023-04-24T07:17:50;23.30;21.10
17284;DHT22;8760;52.248;20.952;2023-04-24T07:20:17;23.30;13.60
17284;DHT22;8760;52.248;20.952;2023-04-24T07:22:44;23.60;9.00
17284;DHT22;8760;52.248;20.952;2023-04-24T07:25:12;23.30;3.60
17284;DHT22;8760;52.248;20.952;2023-04-24T07:27:39;23.00;15.70
17284;DHT22;8760;52.248;20.952;2023-04-24T07:30:07;22.80;1.00
17284;DHT22;8760;52.248;20.952;2023-04-24T07:32:34;22.60;1.00
17284;DHT22;8760;52.248;20.952;2023-04-24T07:35:01;22.20;1.00
17284;DHT22;8760;52.248;20.952;2023-04-24T07:37:28;22.90;1.00
17284;DHT22;8760;52.248;20.952;2023-04-24T07:39:55;23.50;1.00
17284;DHT22;8760;52.248;20.952;2023-04-24T07:42:24;23.70;1.00
17284;DHT22;8760;52.248;20.952;2023-04-24T07:44:51;23.70;1.00
17284;DHT22;8760;52.248;20.952;2023-04-24T07:47:17;23.80;1.00
17284;DHT22;8760;52.248;20.952;2023-04-24T07:49:45;23.50;1.00
17284;DHT22;8760;52.248;20.952;2023-04-24T07:52:11;23.80;1.00
17284;DHT22;8760;52.248;20.952;2023-04-24T07:54:38;24.10;1.00
17284;DHT22;8760;52.248;20.952;2023-04-24T07:57:05;24.30;1.00
17284;DHT22;8760;52.248;20.952;2023-04-24T07:59:35;24.40;1.00
17284;DHT22;8760;52.248;20.952;2023-04-24T08:02:01;24.70;1.00
17284;DHT22;8760;52.248;20.952;2023-04-24T08:04:28;24.80;1.00
17284;DHT22;8760;52.248;20.952;2023-04-24T08:06:55;24.00;1.00
17284;DHT22;8760;52.248;20.952;2023-04-24T08:09:22;23.20;1.00
17284;DHT22;8760;52.248;20.952;2023-04-24T08:11:49;22.40;1.00
17284;DHT22;8760;52.248;20.952;2023-04-24T08:14:19;22.00;1.00
17284;DHT22;8760;52.248;20.952;2023-04-24T08:16:47;21.70;1.00
17284;DHT22;8760;52.248;20.952;2023-04-24T08:19:14;21.40;1.00
17284;DHT22;8760;52.248;20.952;2023-04-24T08:21:41;21.10;1.00
17284;DHT22;8760;52.248;20.952;2023-04-24T08:24:08;20.70;1.00
17284;DHT22;8760;52.248;20.952;2023-04-24T08:26:35;20.50;1.00
17284;DHT22;8760;52.248;20.952;2023-04-24T08:29:02;20.50;1.00
17284;DHT22;8760;52.248;20.952;2023-04-24T08:31:29;20.40;10.80
17284;DHT22;8760;52.248;20.952;2023-04-24T08:33:57;20.20;1.00
17284;DHT22;8760;52.248;20.952;2023-04-24T08:36:25;20.00;3.40
17284;DHT22;8760;52.248;20.952;2023-04-24T08:38:52;19.90;10.80
17284;DHT22;8760;52.248;20.952;2023-04-24T08:41:19;20.20;15.70
17284;DHT22;8760;52.248;20.952;2023-04-24T08:43:47;20.50;17.80
17284;DHT22;8760;52.248;20.952;2023-04-24T08:46:15;20.80;19.00
17284;DHT22;8760;52.248;20.952;2023-04-24T08:48:43;21.00;19.10
17284;DHT22;8760;52.248;20.952;2023-04-24T08:51:12;21.00;17.20
17284;DHT22;8760;52.248;20.952;2023-04-24T08:53:39;20.90;20.70
17284;DHT22;8760;52.248;20.952;2023-04-24T08:56:06;21.00;23.10
17284;DHT22;8760;52.248;20.952;2023-04-24T08:58:33;21.00;20.90
17284;DHT22;8760;52.248;20.952;2023-04-24T09:01:02;21.10;22.80
17284;DHT22;8760;52.248;20.952;2023-04-24T09:03:29;20.90;22.00
17284;DHT22;8760;52.248;20.952;2023-04-24T09:05:58;20.90;23.20
17284;DHT22;8760;52.248;20.952;2023-04-24T09:08:28;21.00;22.60
17284;DHT22;8760;52.248;20.952;2023-04-24T09:10:55;21.10;21.90
17284;DHT22;8760;52.248;20.952;2023-04-24T09:13:24;21.30;21.80
17284;DHT22;8760;52.248;20.952;2023-04-24T09:15:52;21.40;20.90
17284;DHT22;8760;52.248;20.952;2023-04-24T09:18:19;21.50;21.50
17284;DHT22;8760;52.248;20.952;2023-04-24T09:21:06;21.70;22.40
17284;DHT22;8760;52.248;20.952;2023-04-24T09:23:35;22.00;24.40
17284;DHT22;8760;52.248;20.952;2023-04-24T09:26:03;22.70;21.20
17284;DHT22;8760;52.248;20.952;2023-04-24T09:28:31;23.40;14.70
17284;DHT22;8760;52.248;20.952;2023-04-24T09:31:06;23.40;5.00
17284;DHT22;8760;52.248;20.952;2023-04-24T09:33:33;23.20;1.00
17284;DHT22;8760;52.248;20.952;2023-04-24T09:36:06;22.80;1.00
17284;DHT22;8760;52.248;20.952;2023-04-24T09:38:36;22.50;1.00
17284;DHT22;8760;52.248;20.952;2023-04-24T09:41:05;23.10;1.00
17284;DHT22;8760;52.248;20.952;2023-04-24T09:43:32;23.50;1.00
17284;DHT22;8760;52.248;20.952;2023-04-24T09:46:04;24.00;1.00
17284;DHT22;8760;52.248;20.952;2023-04-24T09:48:33;24.70;1.00
17284;DHT22;8760;52.248;20.952;2023-04-24T09:51:01;25.80;1.00
17284;DHT22;8760;52.248;20.952;2023-04-24T09:53:29;26.40;1.00
17284;DHT22;8760;52.248;20.952;2023-04-24T09:56:02;27.00;1.00
17284;DHT22;8760;52.248;20.952;2023-04-24T09:58:29;27.70;1.00
17284;DHT22;8760;52.248;20.952;2023-04-24T10:00:56;28.40;1.00
17284;DHT22;8760;52.248;20.952;2023-04-24T10:03:24;29.20;1.00
17284;DHT22;8760;52.248;20.952;2023-04-24T10:05:52;29.50;1.00
17284;DHT22;8760;52.248;20.952;2023-04-24T10:08:20;29.30;1.00
17284;DHT22;8760;52.248;20.952;2023-04-24T10:10:47;29.40;1.00
17284;DHT22;8760;52.248;20.952;2023-04-24T10:13:16;29.30;1.00
17284;DHT22;8760;52.248;20.952;2023-04-24T10:15:43;29.60;1.00
17284;DHT22;8760;52.248;20.952;2023-04-24T10:18:11;29.60;1.00
17284;DHT22;8760;52.248;20.952;2023-04-24T10:20:39;29.90;1.00
17284;DHT22;8760;52.248;20.952;2023-04-24T10:23:06;30.00;1.00
17284;DHT22;8760;52.248;20.952;2023-04-24T10:25:35;29.80;1.00
17284;DHT22;8760;52.248;20.952;2023-04-24T10:28:02;29.60;1.00
17284;DHT22;8760;52.248;20.952;2023-04-24T10:30:33;29.80;1.00
17284;DHT22;8760;52.248;20.952;2023-04-24T10:33:02;29.70;1.00
17284;DHT22;8760;52.248;20.952;2023-04-24T10:35:31;29.80;1.00
17284;DHT22;8760;52.248;20.952;2023-04-24T10:38:01;29.80;1.00
17284;DHT22;8760;52.248;20.952;2023-04-24T10:40:31;30.40;1.00
17284;DHT22;8760;52.248;20.952;2023-04-24T10:42:59;30.30;1.00
17284;DHT22;8760;52.248;20.952;2023-04-24T10:45:33;30.70;1.00
17284;DHT22;8760;52.248;20.952;2023-04-24T10:48:02;31.10;1.00
17284;DHT22;8760;52.248;20.952;2023-04-24T10:50:41;31.20;1.00
17284;DHT22;8760;52.248;20.952;2023-04-24T10:53:14;31.60;1.00
17284;DHT22;8760;52.248;20.952;2023-04-24T10:55:46;31.70;1.00
17284;DHT22;8760;52.248;20.952;2023-04-24T10:58:14;32.00;1.00
17284;DHT22;8760;52.248;20.952;2023-04-24T11:00:44;32.70;1.00
17284;DHT22;8760;52.248;20.952;2023-04-24T11:03:26;32.40;1.00
17284;DHT22;8760;52.248;20.952;2023-04-24T11:05:56;30.90;1.00
17284;DHT22;8760;52.248;20.952;2023-04-24T11:08:28;29.30;1.00
17284;DHT22;8760;52.248;20.952;2023-04-24T11:11:01;28.40;1.00
17284;DHT22;8760;52.248;20.952;2023-04-24T11:14:04;28.10;1.00
17284;DHT22;8760;52.248;20.952;2023-04-24T11:16:38;28.20;1.00
17284;DHT22;8760;52.248;20.952;2023-04-24T11:19:07;28.70;1.00
17284;DHT22;8760;52.248;20.952;2023-04-24T11:21:41;29.10;1.00
17284;DHT22;8760;52.248;20.952;2023-04-24T11:24:28;29.80;1.00
17284;DHT22;8760;52.248;20.952;2023-04-24T11:26:57;30.00;1.00
17284;DHT22;8760;52.248;20.952;2023-04-24T11:29:42;30.20;1.00
17284;DHT22;8760;52.248;20.952;2023-04-24T11:32:26;30.20;1.00
17284;DHT22;8760;52.248;20.952;2023-04-24T11:34:54;30.10;1.00
17284;DHT22;8760;52.248;20.952;2023-04-24T11:37:22;29.90;1.00
17284;DHT22;8760;52.248;20.952;2023-04-24T11:39:52;30.10;1.00
17284;DHT22;8760;52.248;20.952;2023-04-24T11:42:20;30.20;1.00
17284;DHT22;8760;52.248;20.952;2023-04-24T11:44:48;29.90;1.00
17284;DHT22;8760;52.248;20.952;2023-04-24T11:47:16;29.70;1.00
17284;DHT22;8760;52.248;20.952;2023-04-24T11:49:44;29.70;1.00
17284;DHT22;8760;52.248;20.952;2023-04-24T11:52:15;29.70;1.00
17284;DHT22;8760;52.248;20.952;2023-04-24T11:54:47;30.20;1.00
17284;DHT22;8760;52.248;20.952;2023-04-24T11:57:15;29.30;1.00
17284;DHT22;8760;52.248;20.952;2023-04-24T11:59:42;29.30;1.00
17284;DHT22;8760;52.248;20.952;2023-04-24T12:02:09;29.10;1.00
17284;DHT22;8760;52.248;20.952;2023-04-24T12:04:39;28.50;1.00
17284;DHT22;8760;52.248;20.952;2023-04-24T12:07:08;28.50;1.00
17284;DHT22;8760;52.248;20.952;2023-04-24T12:09:42;28.60;1.00
17284;DHT22;8760;52.248;20.952;2023-04-24T12:12:11;28.60;1.00
17284;DHT22;8760;52.248;20.952;2023-04-24T12:14:47;28.30;1.00
17284;DHT22;8760;52.248;20.952;2023-04-24T12:17:15;28.10;1.00
17284;DHT22;8760;52.248;20.952;2023-04-24T12:19:46;27.70;1.00
17284;DHT22;8760;52.248;20.952;2023-04-24T12:22:14;27.60;1.00
17284;DHT22;8760;52.248;20.952;2023-04-24T12:24:58;27.20;1.00
17284;DHT22;8760;52.248;20.952;2023-04-24T12:27:26;26.70;1.00
17284;DHT22;8760;52.248;20.952;2023-04-24T12:29:55;26.30;1.00
17284;DHT22;8760;52.248;20.952;2023-04-24T12:32:22;26.50;1.00
17284;DHT22;8760;52.248;20.952;2023-04-24T12:34:50;26.00;1.00
17284;DHT22;8760;52.248;20.952;2023-04-24T12:37:19;25.80;1.00
17284;DHT22;8760;52.248;20.952;2023-04-24T12:40:00;25.80;1.00
17284;DHT22;8760;52.248;20.952;2023-04-24T12:42:28;25.90;1.00
17284;DHT22;8760;52.248;20.952;2023-04-24T12:44:59;26.00;1.00
17284;DHT22;8760;52.248;20.952;2023-04-24T12:47:27;25.70;1.00
17284;DHT22;8760;52.248;20.952;2023-04-24T12:49:54;25.60;1.00
17284;DHT22;8760;52.248;20.952;2023-04-24T12:52:23;25.70;1.00
17284;DHT22;8760;52.248;20.952;2023-04-24T12:54:52;25.20;1.00
17284;DHT22;8760;52.248;20.952;2023-04-24T12:57:20;24.40;1.00
17284;DHT22;8760;52.248;20.952;2023-04-24T12:59:47;23.20;1.00
17284;DHT22;8760;52.248;20.952;2023-04-24T13:02:14;22.30;1.00
17284;DHT22;8760;52.248;20.952;2023-04-24T13:04:44;21.50;1.00
17284;DHT22;8760;52.248;20.952;2023-04-24T13:07:11;21.00;1.00
17284;DHT22;8760;52.248;20.952;2023-04-24T13:09:40;20.80;1.00
17284;DHT22;8760;52.248;20.952;2023-04-24T13:12:08;20.80;1.00
17284;DHT22;8760;52.248;20.952;2023-04-24T13:14:35;20.90;1.00
17284;DHT22;8760;52.248;20.952;2023-04-24T13:17:03;21.00;1.00
17284;DHT22;8760;52.248;20.952;2023-04-24T13:19:35;21.00;1.00
17284;DHT22;8760;52.248;20.952;2023-04-24T13:22:03;21.00;1.00
17284;DHT22;8760;52.248;20.952;2023-04-24T13:24:31;20.90;1.00
17284;DHT22;8760;52.248;20.952;2023-04-24T13:26:59;20.90;1.00
17284;DHT22;8760;52.248;20.952;2023-04-24T13:29:27;21.10;1.00
17284;DHT22;8760;52.248;20.952;2023-04-24T13:31:55;21.30;1.00
17284;DHT22;8760;52.248;20.952;2023-04-24T13:34:22;21.70;1.00
17284;DHT22;8760;52.248;20.952;2023-04-24T13:36:49;21.70;1.00
17284;DHT22;8760;52.248;20.952;2023-04-24T13:39:17;21.80;1.00
17284;DHT22;8760;52.248;20.952;2023-04-24T13:41:44;21.90;1.00
17284;DHT22;8760;52.248;20.952;2023-04-24T13:44:14;22.10;1.00
17284;DHT22;8760;52.248;20.952;2023-04-24T13:46:42;22.10;1.00
17284;DHT22;8760;52.248;20.952;2023-04-24T13:49:10;22.20;1.00
17284;DHT22;8760;52.248;20.952;2023-04-24T13:51:38;22.20;1.00
17284;DHT22;8760;52.248;20.952;2023-04-24T13:54:05;22.30;1.00
17284;DHT22;8760;52.248;20.952;2023-04-24T13:56:33;22.00;1.00
17284;DHT22;8760;52.248;20.952;2023-04-24T13:59:00;21.80;1.00
17284;DHT22;8760;52.248;20.952;2023-04-24T14:01:29;21.40;1.00
17284;DHT22;8760;52.248;20.952;2023-04-24T14:03:56;21.40;1.00
17284;DHT22;8760;52.248;20.952;2023-04-24T14:06:23;21.90;1.00
17284;DHT22;8760;52.248;20.952;2023-04-24T14:08:50;22.40;1.00
17284;DHT22;8760;52.248;20.952;2023-04-24T14:11:17;22.70;1.00
17284;DHT22;8760;52.248;20.952;2023-04-24T14:13:45;23.10;1.00
17284;DHT22;8760;52.248;20.952;2023-04-24T14:16:13;23.40;1.00
17284;DHT22;8760;52.248;20.952;2023-04-24T14:18:42;23.60;1.00
17284;DHT22;8760;52.248;20.952;2023-04-24T14:21:09;23.30;1.00
17284;DHT22;8760;52.248;20.952;2023-04-24T14:23:36;22.80;1.00
17284;DHT22;8760;52.248;20.952;2023-04-24T14:26:03;22.40;1.00
17284;DHT22;8760;52.248;20.952;2023-04-24T14:28:30;22.20;1.00
17284;DHT22;8760;52.248;20.952;2023-04-24T14:30:57;21.90;1.00
17284;DHT22;8760;52.248;20.952;2023-04-24T14:33:24;21.80;1.00
17284;DHT22;8760;52.248;20.952;2023-04-24T14:35:52;21.80;1.00
17284;DHT22;8760;52.248;20.952;2023-04-24T14:38:20;21.80;1.00
17284;DHT22;8760;52.248;20.952;2023-04-24T14:40:47;21.70;1.00
17284;DHT22;8760;52.248;20.952;2023-04-24T14:43:14;21.70;1.00
17284;DHT22;8760;52.248;20.952;2023-04-24T14:45:41;22.00;1.00
17284;DHT22;8760;52.248;20.952;2023-04-24T14:48:08;22.50;1.00
17284;DHT22;8760;52.248;20.952;2023-04-24T14:50:35;22.80;1.00
17284;DHT22;8760;52.248;20.952;2023-04-24T14:53:03;23.10;1.00
17284;DHT22;8760;52.248;20.952;2023-04-24T14:55:30;23.00;1.00
17284;DHT22;8760;52.248;20.952;2023-04-24T14:57:58;22.70;1.00
17284;DHT22;8760;52.248;20.952;2023-04-24T15:00:25;22.50;1.00
17284;DHT22;8760;52.248;20.952;2023-04-24T15:02:53;22.40;1.00
17284;DHT22;8760;52.248;20.952;2023-04-24T15:05:20;22.40;1.00
17284;DHT22;8760;52.248;20.952;2023-04-24T15:07:48;22.20;1.00
17284;DHT22;8760;52.248;20.952;2023-04-24T15:10:17;22.10;1.00
17284;DHT22;8760;52.248;20.952;2023-04-24T15:12:44;22.10;1.00
17284;DHT22;8760;52.248;20.952;2023-04-24T15:15:11;22.10;1.00
17284;DHT22;8760;52.248;20.952;2023-04-24T15:17:38;22.00;1.00
17284;DHT22;8760;52.248;20.952;2023-04-24T15:20:06;22.00;1.00
17284;DHT22;8760;52.248;20.952;2023-04-24T15:22:33;22.10;1.00
17284;DHT22;8760;52.248;20.952;2023-04-24T15:25:00;22.30;1.00
17284;DHT22;8760;52.248;20.952;2023-04-24T15:27:39;22.30;1.00
17284;DHT22;8760;52.248;20.952;2023-04-24T15:30:07;22.40;1.00
17284;DHT22;8760;52.248;20.952;2023-04-24T15:32:34;22.50;1.00
17284;DHT22;8760;52.248;20.952;2023-04-24T15:35:01;22.70;1.00
17284;DHT22;8760;52.248;20.952;2023-04-24T15:37:28;22.80;1.00
17284;DHT22;8760;52.248;20.952;2023-04-24T15:39:55;22.80;1.00
17284;DHT22;8760;52.248;20.952;2023-04-24T15:42:22;22.90;1.00
17284;DHT22;8760;52.248;20.952;2023-04-24T15:44:51;22.80;1.00
17284;DHT22;8760;52.248;20.952;2023-04-24T15:47:19;22.70;1.00